Flight Information

DEPARTURE
,
Elevation:
DESTINATION
,
Elevation:
TPA:
1000 (est.)


0 NM180° True-66° Var114° HDG

Flight Plan:
(click to file on line)

1. Type
2. Aircraft Identification
3. Aircraft Type / Special Equipment
4. True Airspeed
kts
5. Departure Airport
(ICAO code)
6. Arriving Airport
(ICAO code)
7. Cruising Altitude
ft
8. Alternate Airport
(ICAO code)
9. Route of Flight
10. Remarks


00:00:00 Departure ATIS: Destination ATIS:

Clearance Limit:
Route:
Altitude: Expect in minutes
Frequency:
Transponder: (7500 Hijack / 7600 Lost Comms / 7700 Emergency)


KORD 020851Z 25014G25KT 10SM BKN170 BKN250 10/03 A2964 RMK AO2 SLP040 T01000028 55008
Time: 2021-12-02T08:51:00Z
1638437957
Winds: 250 @ 14 kts
Gusting:25 kts
Visibility: 10.0 sm
Clouds (AGL): BKN 17000
BKN 25000
Temperature: 10.0 C
Dew Point: 2.8 C
Pressure: 29.639763 in Hgbr

KBWI 020854Z 00000KT 10SM SCT100 BKN120 BKN250 07/04 A2991 RMK AO2 SLP128 60000 T00720044 58023
Time: 2021-12-02T08:54:00Z
1638437957
Winds: calm
Visibility: 10.0 sm
Clouds (AGL): SCT 10000
BKN 12000
BKN 25000
Temperature: 7.2 C
Dew Point: 4.4 C
Pressure: 29.911417 in Hgbr


Notes:

Data extracted from FAA Digital Chart Supplement. Effective: 0901Z Thursday, OCT 7, 2021 to 0901Z Thursday, DEC 2, 2021
Current ATIS data is provided courtisy of PilotEdge.